Time;durP1;ratioP1;P1;durP2;ratioP2;P2;SDS_P1;SDS_P2;PMS_P1;PMS_P2;Temp;Humidity;BMP_temperature;BMP_pressure;BME280_temperature;BME280_humidity;BME280_pressure;Samples;Min_cycle;Max_cycle;Signal;HPM_P1;HPM_P2
2021/06/14 00:01:09;;;;;;;12.27;6.65;;;;;;;18.56;50.98;102284.59;5072447;28;20085;-48
2021/06/14 00:03:37;;;;;;;16.70;6.95;;;;;;;18.49;50.63;102282.13;5072426;28;20049;-49
2021/06/14 00:06:05;;;;;;;14.60;6.63;;;;;;;18.44;50.58;102285.75;5058184;28;20044;-49
2021/06/14 00:08:33;;;;;;;16.63;7.00;;;;;;;18.41;50.62;102278.06;5070958;28;20125;-48
2021/06/14 00:11:00;;;;;;;14.25;6.65;;;;;;;18.36;50.69;102277.25;5071904;28;20064;-48
2021/06/14 00:13:29;;;;;;;13.70;6.82;;;;;;;18.35;50.61;102276.44;5072078;28;20094;-47
2021/06/14 00:15:57;;;;;;;15.88;7.03;;;;;;;18.36;50.64;102277.25;5072064;28;20051;-49
2021/06/14 00:18:24;;;;;;;15.93;6.55;;;;;;;18.38;50.43;102275.06;5071643;28;20048;-48
2021/06/14 00:20:55;;;;;;;13.50;6.88;;;;;;;18.40;50.12;102275.56;5071917;28;20052;-47
2021/06/14 00:23:24;;;;;;;15.48;6.35;;;;;;;18.38;50.38;102272.28;5072099;28;20041;-48
2021/06/14 00:25:52;;;;;;;13.95;7.05;;;;;;;18.35;50.71;102272.84;5071956;28;20049;-49
2021/06/14 00:28:20;;;;;;;12.43;6.93;;;;;;;18.38;50.55;102275.06;5072259;28;20041;-49
2021/06/14 00:30:50;;;;;;;14.40;7.10;;;;;;;18.45;50.28;102261.75;5072248;28;20033;-48
2021/06/14 00:33:20;;;;;;;15.70;7.22;;;;;;;18.47;50.05;102265.88;5072201;28;20048;-47
2021/06/14 00:35:48;;;;;;;12.23;6.75;;;;;;;18.47;50.05;102265.88;5071998;28;20040;-48
2021/06/14 00:38:16;;;;;;;16.25;6.50;;;;;;;18.48;50.05;102263.94;5071925;28;20110;-46
2021/06/14 00:40:44;;;;;;;14.43;6.38;;;;;;;18.47;49.93;102263.13;5071452;28;20387;-48
2021/06/14 00:43:13;;;;;;;16.90;6.35;;;;;;;18.45;50.09;102259.81;5072214;28;20094;-49
2021/06/14 00:45:52;;;;;;;12.98;6.80;;;;;;;18.37;50.00;102256.81;5071738;28;20063;-47
2021/06/14 00:48:20;;;;;;;11.73;6.25;;;;;;;18.27;50.54;102246.69;5071546;28;20295;-50
2021/06/14 00:50:47;;;;;;;21.90;7.05;;;;;;;18.25;50.65;102255.22;5044428;28;20041;-46
2021/06/14 00:53:30;;;;;;;13.48;6.88;;;;;;;18.25;50.38;102246.94;5072462;28;20040;-47
2021/06/14 00:56:00;;;;;;;12.90;6.72;;;;;;;18.20;50.67;102238.72;5057395;28;20500;-48
2021/06/14 00:58:32;;;;;;;13.52;6.97;;;;;;;18.16;50.98;102239.56;5070316;28;20048;-48
2021/06/14 01:01:01;;;;;;;11.73;6.85;;;;;;;18.15;51.21;102241.50;5074791;28;20052;-49
2021/06/14 01:03:28;;;;;;;12.63;6.78;;;;;;;18.18;51.23;102237.34;5075611;28;20091;-49
2021/06/14 01:06:03;;;;;;;12.82;6.85;;;;;;;18.16;51.15;102239.56;5074663;28;20053;-49
2021/06/14 01:08:33;;;;;;;15.65;7.40;;;;;;;18.09;51.55;102237.97;5075596;28;20134;-46
2021/06/14 01:11:20;;;;;;;15.00;7.10;;;;;;;18.03;51.56;102241.84;5074118;28;20132;-49
2021/06/14 01:14:11;;;;;;;13.55;6.50;;;;;;;17.99;51.55;102228.91;5074719;28;20113;-47
2021/06/14 01:17:04;;;;;;;15.00;6.70;;;;;;;18.01;51.39;102218.41;5052878;28;20040;-50
2021/06/14 01:20:04;;;;;;;13.40;6.90;;;;;;;17.99;51.11;102223.38;5075355;28;20097;-48
2021/06/14 01:23:05;;;;;;;14.18;7.25;;;;;;;17.91;51.50;102226.75;5074037;28;20055;-48
2021/06/14 01:25:59;;;;;;;13.82;7.43;;;;;;;17.81;51.37;102217.41;5035394;28;20084;-48
2021/06/14 01:28:28;;;;;;;16.60;7.68;;;;;;;17.76;51.65;102222.91;5074914;28;20098;-49
2021/06/14 01:30:58;;;;;;;12.10;6.80;;;;;;;17.74;51.69;102216.84;5058009;28;20044;-46
2021/06/14 01:33:29;;;;;;;11.50;6.72;;;;;;;17.77;51.57;102221.78;5074076;28;20102;-49
2021/06/14 01:36:07;;;;;;;15.88;7.70;;;;;;;17.77;51.46;102209.94;5057772;28;20075;-48
2021/06/14 01:38:41;;;;;;;13.98;7.40;;;;;;;17.71;51.68;102211.09;5057607;28;20067;-47
2021/06/14 01:41:14;;;;;;;16.17;7.45;;;;;;;17.64;51.87;102211.41;5058432;28;20072;-48
2021/06/14 01:43:42;;;;;;;13.75;7.20;;;;;;;17.61;52.23;102200.94;5057191;28;20049;-48
2021/06/14 01:46:21;;;;;;;13.65;7.47;;;;;;;17.59;52.26;102206.72;5075092;28;20060;-47
2021/06/14 01:48:53;;;;;;;18.27;7.80;;;;;;;17.59;52.49;102198.44;5073102;28;20040;-47
2021/06/14 01:51:25;;;;;;;13.23;7.85;;;;;;;17.60;52.00;102202.84;5057016;28;20049;-49
2021/06/14 01:54:04;;;;;;;17.20;7.22;;;;;;;17.58;52.27;102201.47;5056607;28;20062;-46
2021/06/14 01:56:58;;;;;;;;;;;;;;;17.57;52.54;102188.81;5071092;28;20102;-47
2021/06/14 01:59:39;;;;;;;15.18;7.88;;;;;;;17.53;52.44;102183.03;5074053;28;20387;-47
2021/06/14 02:02:16;;;;;;;20.02;7.90;;;;;;;17.46;53.02;102183.34;5073429;28;20057;-48
2021/06/14 02:04:47;;;;;;;13.77;8.38;;;;;;;17.41;52.73;102186.13;5073227;28;20041;-49
2021/06/14 02:07:22;;;;;;;18.50;8.88;;;;;;;17.37;53.29;102170.44;5056951;28;20071;-47
2021/06/14 02:09:53;;;;;;;14.63;8.35;;;;;;;17.33;53.47;102170.16;5056951;28;20068;-46
2021/06/14 02:12:21;;;;;;;13.45;7.40;;;;;;;17.31;53.05;102169.63;5074434;28;20045;-48
2021/06/14 02:14:49;;;;;;;13.32;7.75;;;;;;;17.30;53.00;102167.97;5073187;28;20080;-48
2021/06/14 02:17:21;;;;;;;15.15;7.68;;;;;;;17.31;53.03;102169.63;5074796;28;20072;-49
2021/06/14 02:19:50;;;;;;;14.00;7.35;;;;;;;17.30;52.93;102167.97;5072987;28;20083;-48
2021/06/14 02:22:20;;;;;;;14.60;7.60;;;;;;;17.29;53.06;102166.31;5072840;28;20033;-46
2021/06/14 02:24:49;;;;;;;17.77;8.20;;;;;;;17.26;53.04;102164.13;5073199;28;20491;-47
2021/06/14 02:27:19;;;;;;;16.92;7.97;;;;;;;17.24;52.76;102164.44;5072757;28;20117;-47
2021/06/14 02:29:48;;;;;;;17.42;7.78;;;;;;;17.20;53.00;102157.00;5071372;28;20049;-50
2021/06/14 02:32:16;;;;;;;16.75;8.13;;;;;;;17.18;53.23;102149.00;5069344;28;20093;-47
2021/06/14 02:34:46;;;;;;;11.68;6.75;;;;;;;17.18;53.33;102149.00;5056220;28;20045;-48
2021/06/14 02:37:16;;;;;;;17.20;7.90;;;;;;;17.16;52.88;102142.13;5071950;28;20055;-48
2021/06/14 02:39:47;;;;;;;15.43;8.05;;;;;;;17.13;53.03;102137.19;5072312;28;20067;-48
2021/06/14 02:42:17;;;;;;;14.60;7.88;;;;;;;17.09;53.31;102131.41;5056059;28;20571;-50
2021/06/14 02:44:46;;;;;;;15.07;8.00;;;;;;;17.10;52.79;102123.97;5073748;28;20052;-46
2021/06/14 02:47:19;;;;;;;14.93;8.07;;;;;;;17.10;52.69;102123.97;5072476;28;20089;-49
2021/06/14 02:49:49;;;;;;;17.10;8.13;;;;;;;17.10;52.37;102132.22;5056160;28;20403;-47
2021/06/14 02:52:17;;;;;;;14.55;7.85;;;;;;;17.06;52.59;102122.91;5071779;28;20044;-46
2021/06/14 02:55:01;;;;;;;12.63;6.88;;;;;;;17.04;52.72;102132.25;5072209;28;20044;-46
2021/06/14 02:57:30;;;;;;;15.73;6.90;;;;;;;17.07;52.40;102128.09;5072446;28;20086;-46
2021/06/14 02:59:59;;;;;;;14.52;7.28;;;;;;;17.07;52.59;102130.03;5072381;28;20503;-48
2021/06/14 03:02:34;;;;;;;13.00;7.33;;;;;;;17.09;52.44;102127.84;5072103;28;20494;-49
2021/06/14 03:05:03;;;;;;;11.45;6.57;;;;;;;17.09;52.47;102128.66;5071154;28;20688;-49
2021/06/14 03:07:31;;;;;;;15.73;8.00;;;;;;;17.09;52.07;102142.41;5072253;28;20044;-47
2021/06/14 03:09:59;;;;;;;15.65;7.03;;;;;;;17.08;52.56;102139.94;5055577;28;20044;-48
2021/06/14 03:12:27;;;;;;;18.73;7.95;;;;;;;17.06;52.19;102144.91;5073437;28;20064;-49
2021/06/14 03:14:57;;;;;;;13.35;6.57;;;;;;;17.10;52.56;102140.47;5071573;28;20048;-49
2021/06/14 03:17:26;;;;;;;12.25;6.50;;;;;;;17.18;52.07;102142.69;5071016;28;20048;-48
2021/06/14 03:19:56;;;;;;;12.32;6.90;;;;;;;17.22;51.80;102139.09;5055008;28;20032;-49
2021/06/14 03:22:24;;;;;;;14.52;7.38;;;;;;;17.20;51.94;102140.47;5071747;28;20044;-49
2021/06/14 03:24:52;;;;;;;13.43;7.18;;;;;;;17.11;52.17;102136.63;5071840;28;20049;-50
2021/06/14 03:27:21;;;;;;;12.77;7.05;;;;;;;17.07;51.99;102130.84;5071861;28;20074;-49
2021/06/14 03:29:50;;;;;;;15.23;7.28;;;;;;;17.06;52.30;102139.41;5072861;28;20043;-49
2021/06/14 03:32:18;;;;;;;14.80;7.32;;;;;;;17.02;52.23;102139.94;5071278;28;20090;-48
2021/06/14 03:34:47;;;;;;;14.25;7.32;;;;;;;17.00;52.46;102142.19;5070829;28;20570;-49
2021/06/14 03:37:14;;;;;;;14.35;7.00;;;;;;;17.01;52.85;102140.25;5060658;28;20556;-48
2021/06/14 03:39:42;;;;;;;12.52;7.55;;;;;;;17.01;52.87;102135.56;5071477;28;20092;-51
2021/06/14 03:42:10;;;;;;;12.57;6.93;;;;;;;17.01;52.69;102132.00;5072497;28;20040;-47
2021/06/14 03:44:38;;;;;;;15.02;7.22;;;;;;;17.01;52.55;102132.81;5071451;28;20052;-50
2021/06/14 03:47:05;;;;;;;16.42;6.93;;;;;;;17.00;52.93;102130.31;5072300;28;20511;-49
2021/06/14 03:49:33;;;;;;;14.00;7.00;;;;;;;16.96;52.98;102130.06;5072193;28;20044;-50
2021/06/14 03:52:01;;;;;;;16.10;6.85;;;;;;;16.93;53.18;102133.38;5072260;28;20515;-50
2021/06/14 03:54:30;;;;;;;13.88;7.18;;;;;;;16.94;53.13;102135.03;5072856;28;20165;-49
2021/06/14 03:56:57;;;;;;;15.07;7.75;;;;;;;16.93;52.76;102136.16;5073437;28;20086;-50
2021/06/14 03:59:25;;;;;;;13.18;7.15;;;;;;;16.91;53.32;102141.09;5073161;28;20066;-50
2021/06/14 04:01:54;;;;;;;13.68;7.82;;;;;;;16.94;53.16;102136.97;5073374;28;20082;-49
2021/06/14 04:04:40;;;;;;;12.77;6.88;;;;;;;16.94;53.17;102143.28;5073185;28;20505;-49
2021/06/14 04:07:32;;;;;;;14.00;6.68;;;;;;;16.97;53.08;102137.22;5072203;28;20047;-49
2021/06/14 04:10:00;;;;;;;17.35;7.88;;;;;;;16.99;52.76;102136.94;5072639;28;20056;-50
2021/06/14 04:12:29;;;;;;;15.38;8.05;;;;;;;16.97;52.59;102144.66;5072123;28;20411;-48
2021/06/14 04:14:57;;;;;;;19.95;8.20;;;;;;;16.94;52.67;102142.47;5072148;28;20044;-50
2021/06/14 04:17:27;;;;;;;23.92;7.65;;;;;;;16.94;52.50;102140.53;5071903;28;20040;-48
2021/06/14 04:19:57;;;;;;;12.98;6.30;;;;;;;16.94;52.80;102154.28;5045676;28;20411;-45
2021/06/14 04:22:24;;;;;;;15.30;7.82;;;;;;;16.99;52.72;102143.28;5072370;28;20572;-47
2021/06/14 04:24:52;;;;;;;12.93;6.95;;;;;;;17.01;52.92;102149.31;5072346;28;20045;-47
2021/06/14 04:27:20;;;;;;;18.17;7.38;;;;;;;17.03;52.86;102141.63;5072265;28;20049;-50
2021/06/14 04:29:48;;;;;;;13.75;7.18;;;;;;;17.02;52.87;102139.94;5070386;28;20082;-47
2021/06/14 04:32:15;;;;;;;14.88;7.70;;;;;;;17.07;53.22;102135.53;5071004;28;20041;-49
2021/06/14 04:34:43;;;;;;;12.52;6.72;;;;;;;17.10;52.76;102126.72;5070981;28;20048;-47
2021/06/14 04:37:11;;;;;;;13.32;7.55;;;;;;;17.17;52.62;102141.00;5071182;28;20055;-50
2021/06/14 04:39:39;;;;;;;13.60;6.82;;;;;;;17.19;52.84;102134.13;5070124;28;20048;-50
2021/06/14 04:42:07;;;;;;;20.23;7.95;;;;;;;17.22;52.94;102135.47;5071446;28;20102;-49
2021/06/14 04:44:35;;;;;;;19.58;8.18;;;;;;;17.23;52.29;102126.94;5071831;28;20056;-51
2021/06/14 04:47:02;;;;;;;21.20;9.10;;;;;;;17.21;52.62;102125.59;5071135;28;20063;-48
2021/06/14 04:49:30;;;;;;;14.13;8.00;;;;;;;17.19;52.46;102127.78;5070845;28;20426;-49
2021/06/14 04:51:58;;;;;;;19.08;8.77;;;;;;;17.22;52.54;102127.22;5072978;28;20038;-51
2021/06/14 04:54:25;;;;;;;15.82;7.10;;;;;;;17.25;52.87;102122.00;5073847;28;20048;-48
2021/06/14 04:56:53;;;;;;;13.48;8.02;;;;;;;17.31;52.40;102120.03;5072331;28;20082;-49
2021/06/14 04:59:21;;;;;;;12.82;6.82;;;;;;;17.37;52.05;102123.59;5070252;28;20123;-48
2021/06/14 05:01:48;;;;;;;19.33;8.32;;;;;;;17.42;51.76;102121.66;5070729;28;20063;-50
2021/06/14 05:04:16;;;;;;;13.90;7.63;;;;;;;17.44;51.33;102124.94;5070853;28;20514;-49
2021/06/14 05:06:44;;;;;;;17.42;8.27;;;;;;;17.46;51.40;102133.75;5070663;28;20044;-47
2021/06/14 05:09:12;;;;;;;21.10;8.02;;;;;;;17.50;51.26;102138.69;5070743;28;20098;-48
2021/06/14 05:11:40;;;;;;;17.73;7.93;;;;;;;17.50;51.34;102133.19;5070967;28;20384;-48
2021/06/14 05:14:07;;;;;;;19.83;9.07;;;;;;;17.50;51.15;102130.44;5070237;28;20118;-48
2021/06/14 05:16:35;;;;;;;20.17;7.65;;;;;;;17.51;51.50;102129.31;5070214;28;20076;-49
2021/06/14 05:19:03;;;;;;;13.13;6.70;;;;;;;17.55;51.12;102124.88;5070406;28;20144;-50
2021/06/14 05:21:31;;;;;;;14.07;8.40;;;;;;;17.56;51.41;102126.56;5070340;28;20037;-49
2021/06/14 05:23:58;;;;;;;16.90;9.20;;;;;;;17.56;51.06;102124.63;5070279;28;20044;-51
2021/06/14 05:26:26;;;;;;;19.83;8.65;;;;;;;17.57;50.67;102128.19;5066637;28;106428;-51
2021/06/14 05:28:54;;;;;;;21.13;9.77;;;;;;;17.59;50.95;102140.56;5071395;28;20040;-49
2021/06/14 05:31:21;;;;;;;17.42;8.70;;;;;;;17.61;50.63;102143.06;5070812;28;20102;-49
2021/06/14 05:33:49;;;;;;;16.23;8.27;;;;;;;17.61;50.86;102156.84;5071077;28;20044;-49
2021/06/14 05:36:17;;;;;;;15.82;8.77;;;;;;;17.63;50.72;102157.34;5071266;28;20139;-48
2021/06/14 05:38:44;;;;;;;13.50;7.22;;;;;;;17.65;50.76;102153.25;5067313;28;20041;-51
2021/06/14 05:41:12;;;;;;;16.67;7.60;;;;;;;17.68;50.67;102158.19;5052412;28;20090;-47
2021/06/14 05:43:40;;;;;;;13.60;5.57;;;;;;;17.74;50.87;102158.97;5054452;28;20053;-50
2021/06/14 05:46:07;;;;;;;13.20;6.35;;;;;;;17.77;50.97;102150.13;5054303;28;20119;-52
2021/06/14 05:48:35;;;;;;;15.77;9.10;;;;;;;17.78;50.75;102146.28;5054181;28;20052;-49
2021/06/14 05:51:03;;;;;;;16.00;8.00;;;;;;;17.79;50.33;102147.91;4347115;28;10000674;-48
2021/06/14 05:53:31;;;;;;;15.25;7.45;;;;;;;17.83;50.62;102143.50;5052264;28;20172;-48
2021/06/14 05:55:59;;;;;;;11.30;5.97;;;;;;;17.92;51.04;102137.38;5052218;28;20049;-48
2021/06/14 05:58:27;;;;;;;12.80;7.35;;;;;;;17.96;50.58;102132.94;5052167;28;20041;-49
2021/06/14 06:00:55;;;;;;;13.55;6.93;;;;;;;17.97;50.56;102131.84;5052218;28;20033;-48
2021/06/14 06:03:22;;;;;;;14.07;8.43;;;;;;;17.96;50.47;102119.16;5049554;28;20121;-49
2021/06/14 06:05:50;;;;;;;14.43;6.97;;;;;;;17.99;50.98;102118.59;5044127;28;20511;-52
2021/06/14 06:08:18;;;;;;;15.65;8.15;;;;;;;18.01;51.29;102113.59;5056944;28;20089;-51
2021/06/14 06:10:45;;;;;;;20.40;9.32;;;;;;;18.02;51.52;102113.34;5053081;28;20052;-49
2021/06/14 06:13:13;;;;;;;17.67;9.95;;;;;;;18.02;51.18;102107.81;5051390;28;20041;-49
2021/06/14 06:15:41;;;;;;;21.60;10.25;;;;;;;18.03;51.46;102108.63;5049795;28;20107;-50
2021/06/14 06:18:09;;;;;;;17.73;8.68;;;;;;;18.04;51.39;102107.53;5052933;28;20068;-47
2021/06/14 06:20:36;;;;;;;14.00;8.00;;;;;;;18.07;51.71;102104.19;5054682;28;20099;-48
2021/06/14 06:23:04;;;;;;;16.17;8.98;;;;;;;18.08;51.39;102094.81;5051805;28;20045;-50
2021/06/14 06:25:33;;;;;;;18.85;9.75;;;;;;;18.13;51.23;102096.69;5051359;28;20041;-50
2021/06/14 06:28:01;;;;;;;16.98;8.73;;;;;;;18.16;50.60;102091.44;5064428;28;20048;-46
2021/06/14 06:30:31;;;;;;;18.02;9.35;;;;;;;18.17;50.21;102087.56;5070131;28;20663;-50
2021/06/14 06:32:58;;;;;;;20.05;8.65;;;;;;;18.20;50.39;102088.91;5069747;28;20040;-50
2021/06/14 06:35:26;;;;;;;16.40;8.90;;;;;;;18.22;50.46;102094.97;5070897;28;20415;-49
2021/06/14 06:37:54;;;;;;;20.33;9.23;;;;;;;18.26;50.87;102090.53;5070619;28;20103;-48
2021/06/14 06:40:21;;;;;;;18.98;9.30;;;;;;;18.28;50.82;102080.84;5071676;28;20056;-48
2021/06/14 06:42:51;;;;;;;20.95;9.52;;;;;;;18.31;51.04;102084.97;5071295;28;20127;-47
2021/06/14 06:45:20;;;;;;;19.98;8.73;;;;;;;18.36;50.92;102095.13;5071443;28;20545;-47
2021/06/14 06:47:48;;;;;;;23.52;10.35;;;;;;;18.40;50.82;102093.44;5071484;28;20060;-47
2021/06/14 06:50:16;;;;;;;24.02;10.00;;;;;;;18.43;50.99;102090.09;5070319;28;20072;-50
2021/06/14 06:52:44;;;;;;;24.50;10.98;;;;;;;18.47;51.35;102099.44;5070335;28;20040;-49
2021/06/14 06:55:13;;;;;;;25.35;11.35;;;;;;;18.51;51.07;102092.22;5071315;28;20044;-48
2021/06/14 06:57:41;;;;;;;23.95;9.93;;;;;;;18.51;50.90;102082.00;5070912;28;20130;-48
2021/06/14 07:00:18;;;;;;;19.98;8.98;;;;;;;18.53;50.91;102081.72;5071040;28;20052;-51
2021/06/14 07:02:45;;;;;;;25.23;10.32;;;;;;;18.57;50.89;102077.28;5070635;28;20177;-48
2021/06/14 07:05:33;;;;;;;20.30;9.13;;;;;;;18.62;50.69;102082.75;5070984;28;20048;-48
2021/06/14 07:08:01;;;;;;;30.63;11.93;;;;;;;18.72;51.08;102084.56;5053258;28;20048;-49
2021/06/14 07:10:30;;;;;;;24.38;11.15;;;;;;;18.75;51.42;102089.50;5070984;28;20040;-47
2021/06/14 07:12:58;;;;;;;27.48;11.25;;;;;;;18.84;51.08;102089.72;5070740;28;20036;-48
2021/06/14 07:15:26;;;;;;;23.20;10.30;;;;;;;18.88;50.84;102085.25;5070670;28;20862;-46
2021/06/14 07:17:54;;;;;;;20.80;9.93;;;;;;;18.88;50.86;102085.25;5070771;28;20033;-46
2021/06/14 07:20:22;;;;;;;17.40;9.80;;;;;;;18.85;51.06;102080.31;5070899;28;20098;-49
2021/06/14 07:22:49;;;;;;;15.75;8.45;;;;;;;18.84;51.03;102078.69;5070728;28;20044;-49
2021/06/14 07:25:17;;;;;;;18.05;9.43;;;;;;;18.86;51.49;102068.16;5069812;28;20028;-47
2021/06/14 07:27:45;;;;;;;20.08;11.02;;;;;;;18.87;51.51;102067.03;5070077;28;20063;-49
2021/06/14 07:30:30;;;;;;;28.00;12.88;;;;;;;18.87;51.11;102073.38;5070875;28;20036;-48
2021/06/14 07:32:58;;;;;;;16.40;9.30;;;;;;;18.92;50.88;102069.75;5070467;28;20487;-48
2021/06/14 07:35:26;;;;;;;15.90;10.05;;;;;;;18.97;51.13;102066.91;5072020;28;20044;-49
2021/06/14 07:37:54;;;;;;;20.50;10.25;;;;;;;19.00;51.34;102059.97;5072304;28;20448;-47
2021/06/14 07:40:21;;;;;;;21.80;11.63;;;;;;;19.02;51.44;102060.50;5072153;28;20095;-48
2021/06/14 07:42:49;;;;;;;18.92;9.63;;;;;;;19.06;51.01;102051.34;5072605;28;20044;-48
2021/06/14 07:45:21;;;;;;;18.60;9.80;;;;;;;19.11;51.01;102048.50;5072779;28;20499;-48
2021/06/14 07:47:50;;;;;;;25.05;13.27;;;;;;;19.15;51.59;102049.56;5072931;28;20044;-50
2021/06/14 07:50:18;;;;;;;20.63;9.88;;;;;;;19.24;50.89;102043.38;5072130;28;20109;-51
2021/06/14 07:52:46;;;;;;;20.42;8.82;;;;;;;19.30;50.97;102036.66;5072563;28;20119;-48
2021/06/14 07:55:13;;;;;;;16.35;7.93;;;;;;;19.36;50.48;102029.94;5072241;28;20040;-49
2021/06/14 07:57:41;;;;;;;21.83;9.98;;;;;;;19.41;50.45;102027.13;5053763;28;20126;-51
2021/06/14 08:00:10;;;;;;;16.35;8.80;;;;;;;19.43;50.44;102024.84;5053696;28;20075;-51
2021/06/14 08:02:40;;;;;;;22.38;12.52;;;;;;;19.45;50.98;102025.38;5071996;28;20040;-49
2021/06/14 08:05:10;;;;;;;24.23;11.90;;;;;;;19.50;50.57;102018.97;5054063;28;20040;-48
2021/06/14 08:07:38;;;;;;;30.15;12.82;;;;;;;19.54;49.60;102018.06;5072119;28;20033;-45
2021/06/14 08:10:10;;;;;;;25.17;11.88;;;;;;;19.55;49.51;102011.44;5071954;28;20070;-49
2021/06/14 08:12:45;;;;;;;27.23;12.52;;;;;;;19.61;49.49;102003.06;5072062;28;20086;-49
2021/06/14 08:15:31;;;;;;;27.27;12.82;;;;;;;19.72;49.02;101997.09;5072342;28;20063;-48
2021/06/14 08:26:27;;;;;;;22.90;10.25;;;;;;;19.86;48.44;101997.13;5071826;28;20041;-49
2021/06/14 08:28:57;;;;;;;21.15;10.85;;;;;;;19.95;48.52;102006.38;5071828;28;20098;-48
2021/06/14 08:31:27;;;;;;;20.25;10.27;;;;;;;19.99;48.30;101999.13;5071856;28;20406;-47
2021/06/14 08:33:55;;;;;;;15.32;6.28;;;;;;;20.05;47.49;101990.72;5072123;28;20044;-47
2021/06/14 08:36:22;;;;;;;13.32;6.18;;;;;;;20.12;46.80;101993.91;5072029;28;20037;-46
2021/06/14 08:38:50;;;;;;;19.92;8.90;;;;;;;20.18;45.24;101992.72;5071304;28;20064;-49
2021/06/14 08:41:24;;;;;;;16.92;7.57;;;;;;;20.21;44.47;101994.88;5072138;28;20094;-50
2021/06/14 08:43:59;;;;;;;18.92;7.35;;;;;;;20.22;44.10;101985.44;5072018;28;20028;-47
2021/06/14 08:46:27;;;;;;;15.57;6.53;;;;;;;20.27;44.61;101985.31;5072059;28;20052;-51
2021/06/14 08:48:55;;;;;;;14.52;6.22;;;;;;;20.29;44.18;101994.16;5071618;28;20048;-48
2021/06/14 08:51:23;;;;;;;10.90;4.68;;;;;;;20.34;45.48;101994.06;5071830;28;20048;-50
2021/06/14 08:53:52;;;;;;;13.68;6.55;;;;;;;20.39;44.44;101998.66;5071176;28;20090;-48
2021/06/14 08:56:21;;;;;;;14.35;6.55;;;;;;;20.43;45.16;102000.53;5071988;28;20052;-48
2021/06/14 08:58:50;;;;;;;16.02;6.93;;;;;;;20.46;44.70;101998.28;5071805;28;20761;-48
2021/06/14 09:01:19;;;;;;;17.15;6.75;;;;;;;20.49;44.82;101992.13;5071992;28;20498;-48
2021/06/14 09:03:47;;;;;;;14.68;6.15;;;;;;;20.52;45.48;101994.28;5071762;28;20061;-51
2021/06/14 09:06:14;;;;;;;18.20;7.20;;;;;;;20.57;45.28;101986.72;5071393;28;20046;-45
2021/06/14 09:08:54;;;;;;;12.40;5.15;;;;;;;20.63;44.65;101974.41;5070546;28;20380;-47
2021/06/14 09:11:22;;;;;;;11.95;4.88;;;;;;;20.71;44.32;101966.50;5044041;28;20406;-48
2021/06/14 09:13:49;;;;;;;12.65;5.72;;;;;;;20.76;44.82;101970.00;5071752;28;20049;-49
2021/06/14 09:16:17;;;;;;;12.60;4.78;;;;;;;20.79;45.19;101972.16;5072108;28;20036;-50
2021/06/14 09:18:46;;;;;;;12.50;5.68;;;;;;;20.82;44.73;101974.28;5075193;28;20048;-47
2021/06/14 09:21:28;;;;;;;11.90;5.50;;;;;;;20.88;44.46;101974.19;5074932;28;20052;-49
2021/06/14 09:24:05;;;;;;;10.00;4.53;;;;;;;20.93;44.66;101977.69;5075073;28;20055;-48
2021/06/14 09:26:38;;;;;;;12.32;5.47;;;;;;;20.98;45.01;101974.78;5073953;28;20514;-48
2021/06/14 09:29:15;;;;;;;14.23;5.78;;;;;;;21.04;44.67;101970.75;5075449;28;20051;-49
2021/06/14 09:31:45;;;;;;;;;;;;;;;21.11;44.90;101967.56;5075654;28;20044;-46
2021/06/14 09:34:14;;;;;;;12.50;5.22;;;;;;;21.16;43.94;101958.31;5075284;28;19932;-49
2021/06/14 09:36:56;;;;;;;10.80;4.10;;;;;;;21.20;44.59;101951.84;5074580;28;20495;-50
2021/06/14 09:39:24;;;;;;;15.15;5.32;;;;;;;21.32;41.96;101953.25;5075108;28;20068;-48
2021/06/14 09:41:52;;;;;;;8.13;3.50;;;;;;;21.31;43.75;101951.59;5075051;28;20051;-50
2021/06/14 09:44:33;;;;;;;10.73;4.63;;;;;;;21.39;42.15;101950.88;5074035;28;20533;-52
2021/06/14 09:47:06;;;;;;;8.43;4.20;;;;;;;21.47;41.83;101953.72;5074908;28;20086;-49
2021/06/14 09:49:35;;;;;;;11.60;4.63;;;;;;;21.48;42.70;101949.03;5075402;28;20029;-52
2021/06/14 09:52:04;;;;;;;14.00;4.43;;;;;;;21.51;42.21;101959.47;5074572;28;20033;-52
2021/06/14 09:54:36;;;;;;;12.32;4.70;;;;;;;21.58;41.62;101957.09;5074881;28;20036;-50
2021/06/14 09:57:07;;;;;;;11.65;4.75;;;;;;;21.65;41.53;101954.69;5074581;28;20044;-52
2021/06/14 09:59:45;;;;;;;10.68;3.95;;;;;;;21.64;42.46;101952.22;5074922;28;20434;-48
2021/06/14 10:02:17;;;;;;;10.05;4.53;;;;;;;21.66;42.26;101955.50;5073474;28;20041;-51
2021/06/14 10:04:54;;;;;;;20.38;7.03;;;;;;;21.70;42.55;101957.31;5074607;28;20060;-49
2021/06/14 10:07:22;;;;;;;14.55;5.15;;;;;;;21.82;41.61;101958.72;5074147;28;20056;-49
2021/06/14 10:09:52;;;;;;;12.27;4.70;;;;;;;21.90;41.27;101953.19;5074684;28;20073;-50
2021/06/14 10:12:26;;;;;;;22.40;9.25;;;;;;;21.92;41.51;101947.34;5074698;28;20037;-49
2021/06/14 10:14:58;;;;;;;11.88;5.20;;;;;;;21.92;41.36;101950.13;5073438;28;20037;-51
2021/06/14 10:17:36;;;;;;;30.98;12.93;;;;;;;21.91;43.06;101951.22;5074470;28;20040;-49
2021/06/14 10:20:22;;;;;;;22.35;8.90;;;;;;;21.95;41.82;101951.44;5073891;28;20044;-50
2021/06/14 10:22:50;;;;;;;;;;;;;;;22.08;41.97;101945.81;5073776;28;20040;-49
2021/06/14 10:25:34;;;;;;;12.75;5.07;;;;;;;22.33;40.51;101947.06;5074273;28;19926;-49
2021/06/14 10:28:04;;;;;;;16.83;5.13;;;;;;;22.40;40.46;101941.06;5073988;28;20055;-52
2021/06/14 10:30:31;;;;;;;11.65;4.43;;;;;;;22.38;40.32;101936.97;5073951;28;20491;-50
2021/06/14 10:33:00;;;;;;;12.15;4.90;;;;;;;22.36;40.24;101933.69;5074126;28;20048;-46
2021/06/14 10:35:29;;;;;;;12.48;4.82;;;;;;;22.35;41.13;101932.06;5072291;28;20067;-49
2021/06/14 10:38:00;;;;;;;15.52;6.57;;;;;;;22.28;42.34;101936.13;5073942;28;20037;-48
2021/06/14 10:40:28;;;;;;;15.45;6.28;;;;;;;22.27;41.50;101940.03;5074020;28;20411;-50
2021/06/14 10:42:57;;;;;;;13.55;4.95;;;;;;;22.45;40.57;101929.00;5073985;28;20052;-49
2021/06/14 10:45:27;;;;;;;14.52;5.00;;;;;;;22.58;40.43;101928.03;5074443;28;20044;-49
2021/06/14 10:47:57;;;;;;;16.10;5.05;;;;;;;22.71;40.67;101909.63;5073975;28;20109;-49
2021/06/14 10:50:31;;;;;;;12.02;4.20;;;;;;;22.84;40.28;101924.50;5073242;28;20036;-50
2021/06/14 10:52:59;;;;;;;12.55;4.60;;;;;;;22.87;39.74;101918.28;5074111;28;20054;-50
2021/06/14 10:55:33;;;;;;;12.93;4.45;;;;;;;22.80;40.27;101917.94;4353278;28;10000730;-49
2021/06/14 10:58:04;;;;;;;12.50;4.85;;;;;;;22.82;39.90;101921.22;5071372;28;20388;-48
2021/06/14 11:00:34;;;;;;;13.18;4.75;;;;;;;22.93;39.60;101923.38;5071272;28;20051;-49
2021/06/14 11:03:05;;;;;;;11.65;4.53;;;;;;;22.96;39.96;101908.81;5071098;28;20055;-50
2021/06/14 11:05:41;;;;;;;12.25;4.50;;;;;;;22.99;39.62;101912.13;5070950;28;20475;-47
2021/06/14 11:08:18;;;;;;;10.98;4.32;;;;;;;22.96;39.85;101906.03;5070656;28;20044;-49
2021/06/14 11:11:01;;;;;;;12.15;4.82;;;;;;;22.99;40.19;101903.78;5070727;28;20446;-50
2021/06/14 11:13:28;;;;;;;12.00;5.25;;;;;;;23.08;40.27;101901.81;5070884;28;20071;-48
2021/06/14 11:16:02;;;;;;;14.80;4.78;;;;;;;23.16;40.30;101901.00;5070835;28;20056;-50
2021/06/14 11:18:31;;;;;;;11.70;5.47;;;;;;;23.17;39.81;101897.09;5070429;28;20047;-48
2021/06/14 11:21:09;;;;;;;13.50;4.40;;;;;;;23.20;39.84;101901.16;5070649;28;20048;-50
2021/06/14 11:23:38;;;;;;;11.25;4.85;;;;;;;23.06;40.18;101898.53;5071027;28;20542;-50
2021/06/14 11:26:09;;;;;;;10.80;4.45;;;;;;;23.14;39.90;101904.13;5070512;28;20564;-50
2021/06/14 11:28:38;;;;;;;8.50;4.15;;;;;;;23.18;40.18;101895.94;5070377;28;20052;-49
2021/06/14 11:31:19;;;;;;;15.27;5.18;;;;;;;23.01;40.37;101887.59;5070054;28;20109;-49
2021/06/14 11:33:48;;;;;;;12.18;4.57;;;;;;;22.95;40.42;101890.50;5070067;28;20053;-47
2021/06/14 11:36:34;;;;;;;11.55;4.53;;;;;;;23.16;39.55;101881.53;5070204;28;20415;-46
2021/06/14 11:39:14;;;;;;;11.20;4.47;;;;;;;23.37;39.01;101885.28;5069760;28;20036;-50
2021/06/14 11:41:42;;;;;;;10.65;4.50;;;;;;;23.39;39.14;101879.41;5070373;28;20047;-56